sensor_id;sensor_type;location;lat;lon;timestamp;P1;durP1;ratioP1;P2;durP2;ratioP2
22211;SDS011;11275;52.488;13.462;2023-04-01T00:02:19;2.40;;;1.20;;
22211;SDS011;11275;52.488;13.462;2023-04-01T00:04:45;2.05;;;1.30;;
22211;SDS011;11275;52.488;13.462;2023-04-01T00:07:10;2.53;;;1.10;;
22211;SDS011;11275;52.488;13.462;2023-04-01T00:09:36;5.65;;;1.30;;
22211;SDS011;11275;52.488;13.462;2023-04-01T00:12:02;3.78;;;1.40;;
22211;SDS011;11275;52.488;13.462;2023-04-01T00:14:28;4.20;;;1.50;;
22211;SDS011;11275;52.488;13.462;2023-04-01T00:16:54;2.60;;;1.40;;
22211;SDS011;11275;52.488;13.462;2023-04-01T00:19:21;3.92;;;1.45;;
22211;SDS011;11275;52.488;13.462;2023-04-01T00:21:46;2.20;;;1.23;;
22211;SDS011;11275;52.488;13.462;2023-04-01T00:24:13;1.92;;;1.27;;
22211;SDS011;11275;52.488;13.462;2023-04-01T00:26:38;2.20;;;1.40;;
22211;SDS011;11275;52.488;13.462;2023-04-01T00:29:07;3.92;;;1.50;;
22211;SDS011;11275;52.488;13.462;2023-04-01T00:31:33;2.83;;;1.40;;
22211;SDS011;11275;52.488;13.462;2023-04-01T00:33:59;1.83;;;1.20;;
22211;SDS011;11275;52.488;13.462;2023-04-01T00:36:25;3.10;;;1.30;;
22211;SDS011;11275;52.488;13.462;2023-04-01T00:38:50;1.88;;;1.25;;
22211;SDS011;11275;52.488;13.462;2023-04-01T00:41:17;2.90;;;1.30;;
22211;SDS011;11275;52.488;13.462;2023-04-01T00:43:45;2.90;;;1.27;;
22211;SDS011;11275;52.488;13.462;2023-04-01T00:46:12;2.03;;;1.23;;
22211;SDS011;11275;52.488;13.462;2023-04-01T00:48:39;5.00;;;1.70;;
22211;SDS011;11275;52.488;13.462;2023-04-01T00:51:21;2.42;;;1.30;;
22211;SDS011;11275;52.488;13.462;2023-04-01T00:53:51;2.40;;;1.10;;
22211;SDS011;11275;52.488;13.462;2023-04-01T00:56:19;1.77;;;1.00;;
22211;SDS011;11275;52.488;13.462;2023-04-01T00:58:57;2.20;;;1.23;;
22211;SDS011;11275;52.488;13.462;2023-04-01T01:01:25;3.20;;;1.30;;
22211;SDS011;11275;52.488;13.462;2023-04-01T01:03:52;2.40;;;1.27;;
22211;SDS011;11275;52.488;13.462;2023-04-01T01:06:26;2.47;;;1.15;;
22211;SDS011;11275;52.488;13.462;2023-04-01T01:14:36;2.55;;;1.30;;
22211;SDS011;11275;52.488;13.462;2023-04-01T01:17:23;1.98;;;1.27;;
22211;SDS011;11275;52.488;13.462;2023-04-01T01:19:58;3.42;;;1.50;;
22211;SDS011;11275;52.488;13.462;2023-04-01T01:23:03;2.60;;;1.40;;
22211;SDS011;11275;52.488;13.462;2023-04-01T01:31:24;2.65;;;1.30;;
22211;SDS011;11275;52.488;13.462;2023-04-01T01:37:05;2.65;;;1.42;;
22211;SDS011;11275;52.488;13.462;2023-04-01T01:39:37;3.65;;;1.55;;
22211;SDS011;11275;52.488;13.462;2023-04-01T01:42:06;3.20;;;1.45;;
22211;SDS011;11275;52.488;13.462;2023-04-01T01:44:34;2.15;;;1.50;;
22211;SDS011;11275;52.488;13.462;2023-04-01T01:47:01;2.83;;;1.50;;
22211;SDS011;11275;52.488;13.462;2023-04-01T01:49:27;3.13;;;1.58;;
22211;SDS011;11275;52.488;13.462;2023-04-01T01:51:56;2.42;;;1.30;;
22211;SDS011;11275;52.488;13.462;2023-04-01T01:54:22;2.47;;;1.20;;
22211;SDS011;11275;52.488;13.462;2023-04-01T01:56:49;3.10;;;1.25;;
22211;SDS011;11275;52.488;13.462;2023-04-01T01:59:20;2.90;;;1.60;;
22211;SDS011;11275;52.488;13.462;2023-04-01T02:01:50;3.13;;;1.38;;
22211;SDS011;11275;52.488;13.462;2023-04-01T02:04:19;3.50;;;1.50;;
22211;SDS011;11275;52.488;13.462;2023-04-01T02:06:48;3.75;;;1.33;;
22211;SDS011;11275;52.488;13.462;2023-04-01T02:09:23;3.33;;;1.30;;
22211;SDS011;11275;52.488;13.462;2023-04-01T02:11:50;3.08;;;1.38;;
22211;SDS011;11275;52.488;13.462;2023-04-01T02:17:19;2.42;;;1.30;;
22211;SDS011;11275;52.488;13.462;2023-04-01T02:19:51;2.60;;;1.30;;
22211;SDS011;11275;52.488;13.462;2023-04-01T02:22:27;3.97;;;1.10;;
22211;SDS011;11275;52.488;13.462;2023-04-01T02:25:01;3.00;;;1.20;;
22211;SDS011;11275;52.488;13.462;2023-04-01T02:27:33;2.08;;;1.17;;
22211;SDS011;11275;52.488;13.462;2023-04-01T02:29:59;1.27;;;0.80;;
22211;SDS011;11275;52.488;13.462;2023-04-01T02:32:25;3.40;;;1.20;;
22211;SDS011;11275;52.488;13.462;2023-04-01T02:34:52;2.08;;;1.10;;
22211;SDS011;11275;52.488;13.462;2023-04-01T02:37:18;2.63;;;1.10;;
22211;SDS011;11275;52.488;13.462;2023-04-01T02:39:44;3.15;;;1.30;;
22211;SDS011;11275;52.488;13.462;2023-04-01T02:42:10;4.18;;;1.88;;
22211;SDS011;11275;52.488;13.462;2023-04-01T02:44:36;2.95;;;1.45;;
22211;SDS011;11275;52.488;13.462;2023-04-01T02:47:02;2.15;;;1.70;;
22211;SDS011;11275;52.488;13.462;2023-04-01T02:49:28;3.60;;;1.60;;
22211;SDS011;11275;52.488;13.462;2023-04-01T02:51:53;3.28;;;1.80;;
22211;SDS011;11275;52.488;13.462;2023-04-01T02:54:19;2.90;;;1.50;;
22211;SDS011;11275;52.488;13.462;2023-04-01T02:56:45;2.08;;;1.10;;
22211;SDS011;11275;52.488;13.462;2023-04-01T02:59:11;4.05;;;1.75;;
22211;SDS011;11275;52.488;13.462;2023-04-01T03:01:37;3.10;;;1.20;;
22211;SDS011;11275;52.488;13.462;2023-04-01T03:04:03;3.42;;;1.60;;
22211;SDS011;11275;52.488;13.462;2023-04-01T03:06:29;3.67;;;1.92;;
22211;SDS011;11275;52.488;13.462;2023-04-01T03:08:55;3.15;;;1.70;;
22211;SDS011;11275;52.488;13.462;2023-04-01T03:11:20;3.03;;;1.98;;
22211;SDS011;11275;52.488;13.462;2023-04-01T03:13:46;3.80;;;1.98;;
22211;SDS011;11275;52.488;13.462;2023-04-01T03:16:12;3.72;;;1.92;;
22211;SDS011;11275;52.488;13.462;2023-04-01T03:18:38;2.50;;;1.80;;
22211;SDS011;11275;52.488;13.462;2023-04-01T03:21:14;4.90;;;2.20;;
22211;SDS011;11275;52.488;13.462;2023-04-01T03:23:41;3.50;;;1.70;;
22211;SDS011;11275;52.488;13.462;2023-04-01T03:26:07;2.72;;;1.27;;
22211;SDS011;11275;52.488;13.462;2023-04-01T03:28:33;3.13;;;1.55;;
22211;SDS011;11275;52.488;13.462;2023-04-01T03:30:59;3.25;;;1.70;;
22211;SDS011;11275;52.488;13.462;2023-04-01T03:33:25;3.63;;;1.42;;
22211;SDS011;11275;52.488;13.462;2023-04-01T03:35:50;3.55;;;1.73;;
22211;SDS011;11275;52.488;13.462;2023-04-01T03:38:17;3.13;;;1.95;;
22211;SDS011;11275;52.488;13.462;2023-04-01T03:40:43;5.88;;;1.92;;
22211;SDS011;11275;52.488;13.462;2023-04-01T03:43:09;4.22;;;2.00;;
22211;SDS011;11275;52.488;13.462;2023-04-01T03:45:35;3.47;;;1.67;;
22211;SDS011;11275;52.488;13.462;2023-04-01T03:48:01;4.07;;;1.63;;
22211;SDS011;11275;52.488;13.462;2023-04-01T03:50:26;3.25;;;1.50;;
22211;SDS011;11275;52.488;13.462;2023-04-01T03:52:52;5.22;;;2.00;;
22211;SDS011;11275;52.488;13.462;2023-04-01T03:55:18;5.97;;;2.60;;
22211;SDS011;11275;52.488;13.462;2023-04-01T03:57:43;2.30;;;1.85;;
22211;SDS011;11275;52.488;13.462;2023-04-01T04:00:09;3.72;;;1.60;;
22211;SDS011;11275;52.488;13.462;2023-04-01T04:02:35;2.92;;;1.55;;
22211;SDS011;11275;52.488;13.462;2023-04-01T04:05:01;2.55;;;1.55;;
22211;SDS011;11275;52.488;13.462;2023-04-01T04:07:27;3.47;;;1.90;;
22211;SDS011;11275;52.488;13.462;2023-04-01T04:09:53;4.38;;;1.75;;
22211;SDS011;11275;52.488;13.462;2023-04-01T04:12:18;2.97;;;1.65;;
22211;SDS011;11275;52.488;13.462;2023-04-01T04:14:44;5.38;;;2.10;;
22211;SDS011;11275;52.488;13.462;2023-04-01T04:17:10;3.10;;;2.10;;
22211;SDS011;11275;52.488;13.462;2023-04-01T04:19:41;4.00;;;2.60;;
22211;SDS011;11275;52.488;13.462;2023-04-01T04:22:07;4.10;;;2.20;;
22211;SDS011;11275;52.488;13.462;2023-04-01T04:24:36;3.92;;;2.25;;
22211;SDS011;11275;52.488;13.462;2023-04-01T04:27:02;4.03;;;2.00;;
22211;SDS011;11275;52.488;13.462;2023-04-01T04:29:28;4.55;;;2.25;;
22211;SDS011;11275;52.488;13.462;2023-04-01T04:31:54;4.43;;;2.63;;
22211;SDS011;11275;52.488;13.462;2023-04-01T04:34:20;4.20;;;2.70;;
22211;SDS011;11275;52.488;13.462;2023-04-01T04:36:47;3.35;;;1.90;;
22211;SDS011;11275;52.488;13.462;2023-04-01T04:39:13;3.35;;;2.30;;
22211;SDS011;11275;52.488;13.462;2023-04-01T04:41:39;4.75;;;2.45;;
22211;SDS011;11275;52.488;13.462;2023-04-01T04:44:05;5.65;;;2.28;;
22211;SDS011;11275;52.488;13.462;2023-04-01T04:46:31;4.47;;;2.08;;
22211;SDS011;11275;52.488;13.462;2023-04-01T04:48:57;3.28;;;2.15;;
22211;SDS011;11275;52.488;13.462;2023-04-01T04:51:23;4.00;;;2.22;;
22211;SDS011;11275;52.488;13.462;2023-04-01T04:53:49;3.80;;;2.20;;
22211;SDS011;11275;52.488;13.462;2023-04-01T04:56:21;7.55;;;2.40;;
22211;SDS011;11275;52.488;13.462;2023-04-01T04:58:50;4.90;;;2.22;;
22211;SDS011;11275;52.488;13.462;2023-04-01T05:01:18;4.38;;;2.30;;
22211;SDS011;11275;52.488;13.462;2023-04-01T05:03:45;3.97;;;2.30;;
22211;SDS011;11275;52.488;13.462;2023-04-01T05:06:12;4.50;;;1.80;;
22211;SDS011;11275;52.488;13.462;2023-04-01T05:08:43;5.60;;;1.98;;
22211;SDS011;11275;52.488;13.462;2023-04-01T05:11:11;4.80;;;2.00;;
22211;SDS011;11275;52.488;13.462;2023-04-01T05:13:39;5.25;;;2.45;;
22211;SDS011;11275;52.488;13.462;2023-04-01T05:16:15;4.32;;;1.80;;
22211;SDS011;11275;52.488;13.462;2023-04-01T05:18:42;2.88;;;1.80;;
22211;SDS011;11275;52.488;13.462;2023-04-01T05:21:12;5.45;;;1.98;;
22211;SDS011;11275;52.488;13.462;2023-04-01T05:23:38;4.75;;;2.10;;
22211;SDS011;11275;52.488;13.462;2023-04-01T05:26:05;3.40;;;1.90;;
22211;SDS011;11275;52.488;13.462;2023-04-01T05:28:32;5.10;;;2.20;;
22211;SDS011;11275;52.488;13.462;2023-04-01T05:30:58;5.75;;;2.45;;
22211;SDS011;11275;52.488;13.462;2023-04-01T05:33:26;3.92;;;2.05;;
22211;SDS011;11275;52.488;13.462;2023-04-01T05:35:52;3.80;;;2.45;;
22211;SDS011;11275;52.488;13.462;2023-04-01T05:38:18;5.10;;;2.03;;
22211;SDS011;11275;52.488;13.462;2023-04-01T05:40:44;3.65;;;1.80;;
22211;SDS011;11275;52.488;13.462;2023-04-01T05:43:10;3.63;;;1.73;;
22211;SDS011;11275;52.488;13.462;2023-04-01T05:45:36;5.03;;;2.30;;
22211;SDS011;11275;52.488;13.462;2023-04-01T05:48:02;4.22;;;2.30;;
22211;SDS011;11275;52.488;13.462;2023-04-01T05:50:28;4.00;;;2.38;;
22211;SDS011;11275;52.488;13.462;2023-04-01T05:52:54;3.53;;;2.08;;
22211;SDS011;11275;52.488;13.462;2023-04-01T05:55:19;5.00;;;2.35;;
22211;SDS011;11275;52.488;13.462;2023-04-01T05:57:46;5.45;;;3.10;;
22211;SDS011;11275;52.488;13.462;2023-04-01T06:00:13;7.47;;;4.75;;
22211;SDS011;11275;52.488;13.462;2023-04-01T06:02:39;6.30;;;3.28;;
22211;SDS011;11275;52.488;13.462;2023-04-01T06:05:26;5.55;;;2.70;;
22211;SDS011;11275;52.488;13.462;2023-04-01T06:08:01;5.28;;;2.78;;
22211;SDS011;11275;52.488;13.462;2023-04-01T06:13:29;4.22;;;2.35;;
22211;SDS011;11275;52.488;13.462;2023-04-01T06:22:05;5.95;;;2.40;;
22211;SDS011;11275;52.488;13.462;2023-04-01T06:30:18;4.53;;;2.40;;
22211;SDS011;11275;52.488;13.462;2023-04-01T06:40:49;5.22;;;2.45;;
22211;SDS011;11275;52.488;13.462;2023-04-01T06:43:49;4.95;;;1.88;;
22211;SDS011;11275;52.488;13.462;2023-04-01T06:55:00;4.60;;;3.20;;
22211;SDS011;11275;52.488;13.462;2023-04-01T06:57:39;4.50;;;2.53;;
22211;SDS011;11275;52.488;13.462;2023-04-01T07:00:13;5.80;;;2.58;;
22211;SDS011;11275;52.488;13.462;2023-04-01T07:05:47;5.10;;;2.75;;
22211;SDS011;11275;52.488;13.462;2023-04-01T07:08:16;6.45;;;2.72;;
22211;SDS011;11275;52.488;13.462;2023-04-01T07:10:47;4.40;;;2.10;;
22211;SDS011;11275;52.488;13.462;2023-04-01T07:13:27;5.90;;;2.13;;
22211;SDS011;11275;52.488;13.462;2023-04-01T07:16:04;4.00;;;2.35;;
22211;SDS011;11275;52.488;13.462;2023-04-01T07:21:44;5.13;;;2.53;;
22211;SDS011;11275;52.488;13.462;2023-04-01T07:24:32;5.28;;;2.50;;
22211;SDS011;11275;52.488;13.462;2023-04-01T07:27:05;5.05;;;2.95;;
22211;SDS011;11275;52.488;13.462;2023-04-01T07:29:34;5.47;;;2.72;;
22211;SDS011;11275;52.488;13.462;2023-04-01T07:32:05;3.42;;;2.13;;
22211;SDS011;11275;52.488;13.462;2023-04-01T07:34:44;4.68;;;2.30;;
22211;SDS011;11275;52.488;13.462;2023-04-01T07:45:39;4.03;;;2.10;;
22211;SDS011;11275;52.488;13.462;2023-04-01T07:51:02;5.43;;;2.00;;
22211;SDS011;11275;52.488;13.462;2023-04-01T07:53:48;3.83;;;2.17;;
22211;SDS011;11275;52.488;13.462;2023-04-01T07:56:21;7.38;;;2.25;;
22211;SDS011;11275;52.488;13.462;2023-04-01T08:01:30;4.20;;;1.85;;
22211;SDS011;11275;52.488;13.462;2023-04-01T08:06:40;5.10;;;2.15;;
22211;SDS011;11275;52.488;13.462;2023-04-01T08:11:41;3.65;;;2.22;;
22211;SDS011;11275;52.488;13.462;2023-04-01T08:17:15;5.40;;;2.30;;
22211;SDS011;11275;52.488;13.462;2023-04-01T08:22:48;4.70;;;2.90;;
22211;SDS011;11275;52.488;13.462;2023-04-01T08:25:27;7.60;;;3.55;;
22211;SDS011;11275;52.488;13.462;2023-04-01T08:31:12;5.82;;;2.90;;
22211;SDS011;11275;52.488;13.462;2023-04-01T08:33:48;2.50;;;2.05;;
22211;SDS011;11275;52.488;13.462;2023-04-01T08:36:22;2.92;;;2.58;;
22211;SDS011;11275;52.488;13.462;2023-04-01T08:39:02;3.65;;;3.25;;
22211;SDS011;11275;52.488;13.462;2023-04-01T08:47:01;5.82;;;4.68;;
22211;SDS011;11275;52.488;13.462;2023-04-01T08:52:34;5.65;;;4.68;;
22211;SDS011;11275;52.488;13.462;2023-04-01T09:00:48;6.07;;;5.47;;
22211;SDS011;11275;52.488;13.462;2023-04-01T09:06:28;5.05;;;4.55;;
22211;SDS011;11275;52.488;13.462;2023-04-01T09:28:42;7.85;;;6.13;;
22211;SDS011;11275;52.488;13.462;2023-04-01T09:37:16;6.80;;;6.10;;
22211;SDS011;11275;52.488;13.462;2023-04-01T09:45:27;6.70;;;6.10;;
22211;SDS011;11275;52.488;13.462;2023-04-01T09:59:39;5.43;;;4.93;;
22211;SDS011;11275;52.488;13.462;2023-04-01T10:17:33;8.20;;;7.50;;
22211;SDS011;11275;52.488;13.462;2023-04-01T10:37:50;5.60;;;5.10;;
22211;SDS011;11275;52.488;13.462;2023-04-01T10:43:46;6.15;;;5.65;;
22211;SDS011;11275;52.488;13.462;2023-04-01T10:52:04;4.00;;;3.70;;
22211;SDS011;11275;52.488;13.462;2023-04-01T11:14:42;2.63;;;2.10;;
22211;SDS011;11275;52.488;13.462;2023-04-01T11:28:34;2.40;;;2.20;;
22211;SDS011;11275;52.488;13.462;2023-04-01T11:31:11;2.38;;;2.17;;
22211;SDS011;11275;52.488;13.462;2023-04-01T11:36:30;12.07;;;10.10;;
22211;SDS011;11275;52.488;13.462;2023-04-01T11:42:31;2.65;;;2.45;;
22211;SDS011;11275;52.488;13.462;2023-04-01T11:44:56;2.97;;;2.17;;
22211;SDS011;11275;52.488;13.462;2023-04-01T11:53:15;2.33;;;1.65;;
22211;SDS011;11275;52.488;13.462;2023-04-01T11:58:33;1.95;;;1.70;;
22211;SDS011;11275;52.488;13.462;2023-04-01T12:01:28;2.78;;;1.63;;
22211;SDS011;11275;52.488;13.462;2023-04-01T12:10:19;2.90;;;2.10;;
22211;SDS011;11275;52.488;13.462;2023-04-01T12:12:59;2.33;;;2.13;;
22211;SDS011;11275;52.488;13.462;2023-04-01T12:21:55;3.20;;;2.15;;
22211;SDS011;11275;52.488;13.462;2023-04-01T12:27:26;2.80;;;2.60;;
22211;SDS011;11275;52.488;13.462;2023-04-01T12:41:22;2.92;;;2.63;;
22211;SDS011;11275;52.488;13.462;2023-04-01T12:50:03;3.55;;;2.88;;
22211;SDS011;11275;52.488;13.462;2023-04-01T13:21:47;4.00;;;3.60;;
22211;SDS011;11275;52.488;13.462;2023-04-01T13:24:04;4.47;;;4.07;;
22211;SDS011;11275;52.488;13.462;2023-04-01T13:26:36;3.70;;;3.40;;
22211;SDS011;11275;52.488;13.462;2023-04-01T13:29:25;4.53;;;3.35;;
22211;SDS011;11275;52.488;13.462;2023-04-01T13:37:19;4.30;;;3.00;;
22211;SDS011;11275;52.488;13.462;2023-04-01T13:45:26;4.28;;;3.03;;
22211;SDS011;11275;52.488;13.462;2023-04-01T13:54:00;3.42;;;3.10;;
22211;SDS011;11275;52.488;13.462;2023-04-01T13:56:57;3.58;;;3.28;;
22211;SDS011;11275;52.488;13.462;2023-04-01T14:02:41;4.20;;;3.65;;
22211;SDS011;11275;52.488;13.462;2023-04-01T14:05:32;4.07;;;3.22;;
22211;SDS011;11275;52.488;13.462;2023-04-01T14:36:25;3.90;;;3.50;;
22211;SDS011;11275;52.488;13.462;2023-04-01T14:39:03;4.25;;;3.85;;
22211;SDS011;11275;52.488;13.462;2023-04-01T14:47:27;3.50;;;3.20;;
22211;SDS011;11275;52.488;13.462;2023-04-01T14:50:02;3.10;;;2.80;;
22211;SDS011;11275;52.488;13.462;2023-04-01T14:52:42;2.60;;;2.40;;
22211;SDS011;11275;52.488;13.462;2023-04-01T14:55:33;2.50;;;2.23;;
22211;SDS011;11275;52.488;13.462;2023-04-01T14:58:13;2.63;;;2.42;;
22211;SDS011;11275;52.488;13.462;2023-04-01T15:00:47;4.30;;;3.35;;
22211;SDS011;11275;52.488;13.462;2023-04-01T15:03:18;3.85;;;3.55;;
22211;SDS011;11275;52.488;13.462;2023-04-01T15:05:53;4.40;;;4.00;;
22211;SDS011;11275;52.488;13.462;2023-04-01T15:16:47;3.25;;;2.95;;
22211;SDS011;11275;52.488;13.462;2023-04-01T15:25:37;2.75;;;2.50;;
22211;SDS011;11275;52.488;13.462;2023-04-01T15:28:32;3.33;;;3.03;;
22211;SDS011;11275;52.488;13.462;2023-04-01T15:31:15;3.60;;;3.30;;
22211;SDS011;11275;52.488;13.462;2023-04-01T15:33:53;4.25;;;3.72;;
22211;SDS011;11275;52.488;13.462;2023-04-01T15:36:41;4.32;;;3.97;;
22211;SDS011;11275;52.488;13.462;2023-04-01T15:42:18;4.03;;;3.63;;
22211;SDS011;11275;52.488;13.462;2023-04-01T15:55:48;3.50;;;2.95;;
22211;SDS011;11275;52.488;13.462;2023-04-01T15:58:51;3.10;;;2.80;;
22211;SDS011;11275;52.488;13.462;2023-04-01T16:01:48;3.97;;;2.90;;
22211;SDS011;11275;52.488;13.462;2023-04-01T16:12:56;3.40;;;2.88;;
22211;SDS011;11275;52.488;13.462;2023-04-01T16:15:42;3.53;;;3.22;;
22211;SDS011;11275;52.488;13.462;2023-04-01T16:20:57;4.53;;;3.88;;
22211;SDS011;11275;52.488;13.462;2023-04-01T16:23:49;19.30;;;14.55;;
22211;SDS011;11275;52.488;13.462;2023-04-01T16:26:36;19.63;;;15.40;;
22211;SDS011;11275;52.488;13.462;2023-04-01T16:29:41;4.68;;;4.07;;
22211;SDS011;11275;52.488;13.462;2023-04-01T16:34:56;3.78;;;3.38;;
22211;SDS011;11275;52.488;13.462;2023-04-01T16:37:33;3.83;;;3.40;;
22211;SDS011;11275;52.488;13.462;2023-04-01T16:45:39;3.95;;;3.42;;
22211;SDS011;11275;52.488;13.462;2023-04-01T16:53:25;3.35;;;3.05;;
22211;SDS011;11275;52.488;13.462;2023-04-01T16:56:13;3.30;;;2.97;;
22211;SDS011;11275;52.488;13.462;2023-04-01T17:04:26;3.63;;;2.80;;
22211;SDS011;11275;52.488;13.462;2023-04-01T17:15:39;3.67;;;2.97;;
22211;SDS011;11275;52.488;13.462;2023-04-01T17:18:28;5.55;;;2.95;;
22211;SDS011;11275;52.488;13.462;2023-04-01T17:26:32;3.33;;;3.00;;
22211;SDS011;11275;52.488;13.462;2023-04-01T17:34:35;3.22;;;2.90;;
22211;SDS011;11275;52.488;13.462;2023-04-01T17:45:24;4.03;;;3.15;;
22211;SDS011;11275;52.488;13.462;2023-04-01T17:51:09;3.40;;;3.10;;
22211;SDS011;11275;52.488;13.462;2023-04-01T17:56:33;3.60;;;3.20;;
22211;SDS011;11275;52.488;13.462;2023-04-01T18:09:50;4.30;;;3.50;;
22211;SDS011;11275;52.488;13.462;2023-04-01T18:15:39;3.25;;;2.95;;
22211;SDS011;11275;52.488;13.462;2023-04-01T18:29:58;2.95;;;2.60;;
22211;SDS011;11275;52.488;13.462;2023-04-01T18:35:08;4.28;;;3.17;;
22211;SDS011;11275;52.488;13.462;2023-04-01T18:37:46;3.72;;;2.47;;
22211;SDS011;11275;52.488;13.462;2023-04-01T18:40:20;4.15;;;2.53;;
22211;SDS011;11275;52.488;13.462;2023-04-01T18:43:02;4.07;;;2.67;;
22211;SDS011;11275;52.488;13.462;2023-04-01T18:48:43;3.65;;;2.67;;
22211;SDS011;11275;52.488;13.462;2023-04-01T18:56:47;3.85;;;2.72;;
22211;SDS011;11275;52.488;13.462;2023-04-01T19:09:52;4.03;;;2.88;;
22211;SDS011;11275;52.488;13.462;2023-04-01T19:12:30;3.70;;;2.72;;
22211;SDS011;11275;52.488;13.462;2023-04-01T19:15:27;4.53;;;2.92;;
22211;SDS011;11275;52.488;13.462;2023-04-01T19:20:47;5.00;;;3.25;;
22211;SDS011;11275;52.488;13.462;2023-04-01T19:26:12;5.55;;;3.20;;
22211;SDS011;11275;52.488;13.462;2023-04-01T19:31:50;4.38;;;3.40;;
22211;SDS011;11275;52.488;13.462;2023-04-01T19:37:09;4.65;;;3.30;;
22211;SDS011;11275;52.488;13.462;2023-04-01T19:42:52;4.72;;;3.50;;
22211;SDS011;11275;52.488;13.462;2023-04-01T19:56:00;5.18;;;3.53;;
22211;SDS011;11275;52.488;13.462;2023-04-01T19:58:45;5.60;;;3.63;;
22211;SDS011;11275;52.488;13.462;2023-04-01T20:04:11;6.40;;;3.58;;
22211;SDS011;11275;52.488;13.462;2023-04-01T20:10:09;5.97;;;3.80;;
22211;SDS011;11275;52.488;13.462;2023-04-01T20:12:41;6.60;;;4.00;;
22211;SDS011;11275;52.488;13.462;2023-04-01T20:15:22;5.68;;;3.83;;
22211;SDS011;11275;52.488;13.462;2023-04-01T20:17:50;5.15;;;3.88;;
22211;SDS011;11275;52.488;13.462;2023-04-01T20:20:19;5.10;;;3.65;;
22211;SDS011;11275;52.488;13.462;2023-04-01T20:25:56;5.90;;;3.33;;
22211;SDS011;11275;52.488;13.462;2023-04-01T20:28:32;5.95;;;3.40;;
22211;SDS011;11275;52.488;13.462;2023-04-01T20:31:23;6.57;;;3.85;;
22211;SDS011;11275;52.488;13.462;2023-04-01T20:53:53;6.13;;;3.55;;
22211;SDS011;11275;52.488;13.462;2023-04-01T21:05:11;6.78;;;3.72;;
22211;SDS011;11275;52.488;13.462;2023-04-01T21:08:22;4.88;;;3.13;;
22211;SDS011;11275;52.488;13.462;2023-04-01T21:16:50;4.90;;;3.30;;
22211;SDS011;11275;52.488;13.462;2023-04-01T21:36:36;5.35;;;3.30;;
22211;SDS011;11275;52.488;13.462;2023-04-01T21:41:52;7.32;;;3.03;;
22211;SDS011;11275;52.488;13.462;2023-04-01T21:50:47;4.72;;;2.90;;
22211;SDS011;11275;52.488;13.462;2023-04-01T21:53:34;3.75;;;2.60;;
22211;SDS011;11275;52.488;13.462;2023-04-01T22:04:38;4.28;;;2.67;;
22211;SDS011;11275;52.488;13.462;2023-04-01T22:07:29;4.53;;;2.63;;
22211;SDS011;11275;52.488;13.462;2023-04-01T22:12:30;6.38;;;2.60;;
22211;SDS011;11275;52.488;13.462;2023-04-01T22:20:31;3.72;;;2.10;;
22211;SDS011;11275;52.488;13.462;2023-04-01T22:26:13;3.85;;;2.40;;
22211;SDS011;11275;52.488;13.462;2023-04-01T22:29:11;4.35;;;2.60;;
22211;SDS011;11275;52.488;13.462;2023-04-01T22:31:59;3.78;;;1.90;;
22211;SDS011;11275;52.488;13.462;2023-04-01T22:37:17;4.05;;;2.20;;
22211;SDS011;11275;52.488;13.462;2023-04-01T22:40:00;2.75;;;1.92;;
22211;SDS011;11275;52.488;13.462;2023-04-01T22:50:08;3.13;;;2.10;;
22211;SDS011;11275;52.488;13.462;2023-04-01T22:52:42;4.43;;;1.90;;
22211;SDS011;11275;52.488;13.462;2023-04-01T22:55:12;3.50;;;1.95;;
22211;SDS011;11275;52.488;13.462;2023-04-01T22:58:20;3.95;;;2.00;;
22211;SDS011;11275;52.488;13.462;2023-04-01T23:00:43;3.35;;;1.95;;
22211;SDS011;11275;52.488;13.462;2023-04-01T23:03:32;3.22;;;1.70;;
22211;SDS011;11275;52.488;13.462;2023-04-01T23:06:02;3.00;;;1.83;;
22211;SDS011;11275;52.488;13.462;2023-04-01T23:11:23;2.10;;;1.70;;
22211;SDS011;11275;52.488;13.462;2023-04-01T23:14:22;3.50;;;1.98;;
22211;SDS011;11275;52.488;13.462;2023-04-01T23:35:50;4.07;;;2.13;;
22211;SDS011;11275;52.488;13.462;2023-04-01T23:38:17;3.22;;;1.70;;
22211;SDS011;11275;52.488;13.462;2023-04-01T23:40:46;2.50;;;1.60;;
22211;SDS011;11275;52.488;13.462;2023-04-01T23:43:36;2.13;;;1.40;;
22211;SDS011;11275;52.488;13.462;2023-04-01T23:46:05;2.45;;;1.58;;
22211;SDS011;11275;52.488;13.462;2023-04-01T23:48:33;2.92;;;1.52;;
22211;SDS011;11275;52.488;13.462;2023-04-01T23:51:05;3.95;;;1.60;;
22211;SDS011;11275;52.488;13.462;2023-04-01T23:54:01;2.75;;;1.60;;
22211;SDS011;11275;52.488;13.462;2023-04-01T23:56:40;2.33;;;1.40;;
22211;SDS011;11275;52.488;13.462;2023-04-01T23:59:16;2.80;;;1.88;;
